KMHE/MHE METAR and TAF weather

Enter ICAO airport designator
Station Type Date Time Source
KMHE METAR 2022/11/26 07:53 UTC NOAA

KMHE 260753Z AUTO 16010KT 10SM CLR 01/M07 A2983 RMK AO2 SLP107 T00111067


Station Type Date Time Source
KMHE Decoded METAR 2022/11/26 07:53 UTC NOAA

MITCHELL MUNICIPAL AIRPORT, SD, United States (KMHE) 43-46N 98-02W
Nov 26, 2022 - 02:53 AM EST / 2022.11.26 0753 UTC
Wind: from the SSE (160 degrees) at 12 MPH (10 KT):0
Visibility: 10 mile(s):0
Sky conditions: clear
Temperature: 34.0 F (1.1 C)
Windchill: 24 F (-4 C):1
Dew Point: 19.9 F (-6.7 C)
Relative Humidity: 55%
Pressure (altimeter): 29.83 in. Hg (1010 hPa)
ob: KMHE 260753Z AUTO 16010KT 10SM CLR 01/M07 A2983 RMK AO2 SLP107 T00111067
cycle: 8

Station Type Date Time Source
KMHE TAF UTC NOAA

Error!

Example: see airport list